Time;durP1;ratioP1;P1;durP2;ratioP2;P2;SDS_P1;SDS_P2;PMS_P1;PMS_P2;Temp;Humidity;BMP_temperature;BMP_pressure;BME280_temperature;BME280_humidity;BME280_pressure;Samples;Min_cycle;Max_cycle;Signal;HPM_P1;HPM_P2
2022/09/27 00:06:34;;;;;;;0.67;0.20;;;;;;;10.12;100.00;96263.16;18502902;32;20075;-64
2022/09/27 00:16:43;;;;;;;2.27;0.40;;;;;;;10.22;100.00;96264.06;18489216;32;20041;-63
2022/09/27 00:26:46;;;;;;;0.70;0.20;;;;;;;10.24;100.00;96270.75;18501305;32;20113;-63
2022/09/27 00:36:49;;;;;;;0.83;0.30;;;;;;;10.23;100.00;96276.47;18480575;32;20053;-63
2022/09/27 00:47:22;;;;;;;0.93;0.20;;;;;;;10.18;100.00;96304.37;18299463;32;20086;-63
2022/09/27 00:57:25;;;;;;;0.17;0.10;;;;;;;10.21;100.00;96313.78;18296346;32;20078;-63
2022/09/27 01:07:27;;;;;;;0.60;0.40;;;;;;;10.14;100.00;96314.97;18297876;32;20062;-63
2022/09/27 01:17:59;;;;;;;5.70;0.57;;;;;;;10.01;100.00;96307.69;18340465;32;20054;-63
2022/09/27 01:28:08;;;;;;;1.40;0.63;;;;;;;9.87;100.00;96312.25;18296319;32;20085;-64
2022/09/27 01:38:28;;;;;;;3.43;0.30;;;;;;;9.72;100.00;96321.47;18296125;32;20081;-63
2022/09/27 01:48:38;;;;;;;1.37;0.40;;;;;;;9.75;100.00;96340.53;18351507;32;20081;-64
2022/09/27 01:58:49;;;;;;;3.80;0.70;;;;;;;9.89;100.00;96347.88;18390988;32;20070;-63
2022/09/27 02:09:01;;;;;;;1.47;0.63;;;;;;;9.93;100.00;96349.66;18482133;32;20053;-63
2022/09/27 02:19:17;;;;;;;2.87;0.87;;;;;;;9.97;100.00;96361.47;18496224;32;20044;-63
2022/09/27 02:29:33;;;;;;;5.70;0.90;;;;;;;10.00;100.00;96362.78;18489189;32;20094;-64
2022/09/27 02:39:35;;;;;;;4.40;0.90;;;;;;;10.01;100.00;96362.47;18495262;32;20080;-64
2022/09/27 02:49:56;;;;;;;3.50;0.70;;;;;;;9.96;100.00;96359.88;18303981;32;20066;-63
2022/09/27 03:00:06;;;;;;;2.93;0.57;;;;;;;9.82;100.00;96370.63;18305600;32;20062;-63
2022/09/27 03:10:19;;;;;;;1.00;0.20;;;;;;;9.60;100.00;96370.50;18305462;32;20078;-63
2022/09/27 03:20:21;;;;;;;3.37;0.57;;;;;;;9.37;100.00;96381.09;18420866;32;20057;-63
2022/09/27 03:30:23;;;;;;;2.00;0.70;;;;;;;9.17;100.00;96398.41;18440755;32;20049;-63
2022/09/27 03:40:26;;;;;;;2.93;0.60;;;;;;;9.13;100.00;96392.78;18440430;32;20049;-63
2022/09/27 03:50:28;;;;;;;1.90;0.60;;;;;;;9.14;100.00;96410.56;18439806;32;20410;-63
2022/09/27 04:00:35;;;;;;;4.27;1.10;;;;;;;9.21;100.00;96406.69;18447553;32;20056;-63
2022/09/27 04:10:37;;;;;;;7.70;1.10;;;;;;;9.37;100.00;96413.47;18489806;32;20045;-63
2022/09/27 04:20:39;;;;;;;4.63;0.93;;;;;;;9.38;100.00;96411.59;18502244;32;20079;-63
2022/09/27 04:30:42;;;;;;;2.37;0.77;;;;;;;9.39;100.00;96415.91;18502024;32;20056;-63
2022/09/27 04:40:46;;;;;;;1.73;0.90;;;;;;;9.31;100.00;96425.44;18501284;32;20071;-63
2022/09/27 04:50:56;;;;;;;2.93;0.70;;;;;;;9.28;100.00;96448.41;18486830;32;20068;-63
2022/09/27 05:00:59;;;;;;;3.77;0.80;;;;;;;9.27;100.00;96451.41;18297938;32;20384;-63
2022/09/27 05:11:02;;;;;;;3.93;1.00;;;;;;;9.27;100.00;96460.28;18297519;32;20132;-64
2022/09/27 05:21:06;;;;;;;1.90;0.40;;;;;;;9.24;100.00;96463.56;18108985;32;20113;-64
2022/09/27 05:31:13;;;;;;;2.47;0.53;;;;;;;9.28;100.00;96482.69;18136529;32;20408;-63
2022/09/27 05:41:45;;;;;;;3.67;0.77;;;;;;;9.21;100.00;96484.91;18285868;32;20066;-63
2022/09/27 05:51:51;;;;;;;1.77;0.50;;;;;;;9.08;100.00;96508.81;18323984;32;20094;-63
2022/09/27 06:01:54;;;;;;;3.23;0.80;;;;;;;9.07;100.00;96527.97;18450154;32;20116;-63
2022/09/27 06:11:57;;;;;;;1.97;0.57;;;;;;;9.08;100.00;96541.16;18482266;32;20061;-63
2022/09/27 06:22:00;;;;;;;2.83;1.03;;;;;;;9.18;100.00;96544.81;18408515;32;20127;-63
2022/09/27 06:32:03;;;;;;;5.47;1.20;;;;;;;9.09;100.00;96564.34;18344505;32;20073;-63
2022/09/27 06:42:07;;;;;;;2.60;0.70;;;;;;;9.09;100.00;96567.03;18357210;32;20073;-63
2022/09/27 06:52:10;;;;;;;3.67;1.03;;;;;;;9.20;100.00;96561.53;18407709;32;20096;-63
2022/09/27 07:02:15;;;;;;;;;;;;;;;9.44;100.00;96586.59;18431215;32;20061;-63
2022/09/27 07:12:21;;;;;;;4.03;1.03;;;;;;;9.57;100.00;96587.75;18480075;32;19948;-63
2022/09/27 07:22:24;;;;;;;;;;;;;;;9.74;100.00;96594.56;18479681;32;20068;-63
2022/09/27 07:32:27;;;;;;;3.77;0.90;;;;;;;9.96;100.00;96592.09;18499999;32;19948;-63
2022/09/27 07:42:29;;;;;;;4.47;1.20;;;;;;;10.12;100.00;96606.16;18490712;32;20065;-63
2022/09/27 07:52:43;;;;;;;2.27;0.90;;;;;;;10.24;100.00;96603.03;18483782;32;20049;-63
2022/09/27 08:02:46;;;;;;;2.33;1.00;;;;;;;10.37;100.00;96617.69;18503944;32;20062;-63
2022/09/27 08:12:50;;;;;;;5.33;1.23;;;;;;;10.50;100.00;96616.16;18301344;32;20123;-63
2022/09/27 08:22:53;;;;;;;4.40;1.10;;;;;;;10.80;100.00;96611.34;18300847;32;20447;-63
2022/09/27 08:32:56;;;;;;;5.53;1.10;;;;;;;11.16;100.00;96621.50;18300075;32;20516;-63
2022/09/27 08:43:20;;;;;;;5.23;1.00;;;;;;;11.52;100.00;96615.38;18458762;32;20057;-64
2022/09/27 08:54:18;;;;;;;3.22;0.90;;;;;;;11.70;100.00;96629.91;18474227;32;20413;-63
2022/09/27 09:04:33;;;;;;;3.50;0.80;;;;;;;11.54;100.00;96651.09;18234184;32;20081;-63
2022/09/27 09:14:52;;;;;;;3.30;1.00;;;;;;;11.14;100.00;96662.37;18221244;32;20148;-63
2022/09/27 09:25:15;;;;;;;2.80;0.47;;;;;;;10.68;100.00;96688.28;18109129;32;20070;-63
2022/09/27 09:35:27;;;;;;;1.23;0.60;;;;;;;10.21;100.00;96694.66;18280089;32;20237;-63
2022/09/27 09:45:48;;;;;;;0.60;0.27;;;;;;;9.91;100.00;96700.16;18295832;32;20126;-63
2022/09/27 09:55:59;;;;;;;1.43;0.50;;;;;;;9.87;100.00;96690.22;18466586;32;20069;-63
2022/09/27 10:06:03;;;;;;;3.30;0.47;;;;;;;9.81;100.00;96693.00;18496259;32;20096;-63
2022/09/27 10:16:12;;;;;;;0.50;0.30;;;;;;;9.90;100.00;96674.25;18357886;32;20478;-63
2022/09/27 10:26:18;;;;;;;1.37;0.50;;;;;;;10.06;100.00;96652.44;18357709;32;20099;-63
2022/09/27 10:36:25;;;;;;;0.57;0.37;;;;;;;10.29;100.00;96640.78;18357409;32;20105;-63
2022/09/27 10:46:33;;;;;;;1.40;0.27;;;;;;;10.69;100.00;96637.75;18380652;32;20049;-63
2022/09/27 10:56:36;;;;;;;0.70;0.30;;;;;;;11.15;100.00;96626.09;18494853;32;20481;-63
2022/09/27 11:06:40;;;;;;;2.27;0.87;;;;;;;11.34;100.00;96620.59;18485789;32;20071;-63
2022/09/27 11:17:19;;;;;;;1.90;0.60;;;;;;;11.43;100.00;96620.72;18506476;32;20097;-63
2022/09/27 11:27:28;;;;;;;0.98;0.50;;;;;;;11.32;100.00;96625.53;18491301;32;20080;-63
2022/09/27 11:38:09;;;;;;;2.95;0.50;;;;;;;11.48;100.00;96619.81;18490322;32;20093;-63
2022/09/27 11:48:50;;;;;;;3.85;0.90;;;;;;;11.70;100.00;96617.19;18490955;32;20092;-63
2022/09/27 11:59:23;;;;;;;4.00;0.50;;;;;;;12.00;100.00;96617.66;18490033;32;20087;-63
2022/09/27 12:09:36;;;;;;;2.42;0.70;;;;;;;12.44;100.00;96615.28;18503355;32;20421;-63
2022/09/27 12:19:44;;;;;;;1.30;0.40;;;;;;;12.11;100.00;96590.31;18501006;32;20099;-63
2022/09/27 12:29:48;;;;;;;1.35;0.50;;;;;;;12.02;100.00;96582.94;18481416;32;20063;-63
2022/09/27 12:40:22;;;;;;;3.37;0.68;;;;;;;13.07;100.00;96573.84;18501506;32;20389;-63
2022/09/27 12:50:41;;;;;;;1.08;0.32;;;;;;;12.78;100.00;96572.44;18500968;32;20108;-64
2022/09/27 13:01:13;;;;;;;1.25;0.20;;;;;;;12.20;100.00;96567.59;18499915;32;20067;-64
2022/09/27 13:11:22;;;;;;;1.08;0.40;;;;;;;12.61;100.00;96573.94;18499684;32;20060;-63
2022/09/27 13:21:48;;;;;;;0.50;0.20;;;;;;;12.62;100.00;96580.16;18498547;32;20422;-63
2022/09/27 13:31:54;;;;;;;2.37;0.40;;;;;;;12.24;100.00;96588.66;18232703;32;20152;-63
2022/09/27 13:42:08;;;;;;;0.95;0.40;;;;;;;11.60;100.00;96608.47;18232495;32;20112;-63
2022/09/27 13:52:32;;;;;;;;;;;;;;;11.28;100.00;96613.69;18232726;32;20061;-63
2022/09/27 14:02:58;;;;;;;0.90;0.20;;;;;;;11.27;100.00;96597.75;18295813;32;19948;-63
2022/09/27 14:13:04;;;;;;;0.95;0.22;;;;;;;11.30;100.00;96605.28;18496461;32;20077;-63
2022/09/27 14:23:26;;;;;;;0.50;0.30;;;;;;;11.43;100.00;96587.41;18481820;32;20088;-64
2022/09/27 14:33:33;;;;;;;1.05;0.40;;;;;;;11.36;100.00;96585.94;18495630;32;20049;-63
2022/09/27 14:43:42;;;;;;;1.25;0.30;;;;;;;11.29;100.00;96587.44;18503433;32;20053;-63
2022/09/27 14:53:48;;;;;;;2.45;0.60;;;;;;;11.24;100.00;96576.72;18493829;32;20101;-63
2022/09/27 15:03:52;;;;;;;1.77;0.60;;;;;;;11.04;100.00;96597.62;18507275;32;20057;-63
2022/09/27 15:13:56;;;;;;;1.57;0.40;;;;;;;10.69;100.00;96613.41;18500202;32;20072;-63
2022/09/27 15:24:01;;;;;;;0.40;0.20;;;;;;;10.60;100.00;96613.28;18492325;32;20061;-63
2022/09/27 15:34:07;;;;;;;3.17;0.40;;;;;;;10.81;100.00;96600.22;18505581;32;20444;-63
2022/09/27 15:44:37;;;;;;;1.63;0.20;;;;;;;10.81;100.00;96600.22;18479203;32;20112;-63
2022/09/27 15:54:40;;;;;;;1.10;0.40;;;;;;;10.74;100.00;96590.88;18504367;32;20064;-63
2022/09/27 16:04:44;;;;;;;2.00;0.20;;;;;;;10.63;100.00;96591.09;18503100;32;20090;-64
2022/09/27 16:14:47;;;;;;;1.73;0.30;;;;;;;10.34;100.00;96586.66;18489608;32;20056;-63
2022/09/27 16:24:50;;;;;;;0.73;0.20;;;;;;;10.13;100.00;96596.19;18503044;32;20076;-63
2022/09/27 16:34:56;;;;;;;1.40;0.20;;;;;;;10.02;100.00;96595.53;18501906;32;20071;-63
2022/09/27 16:45:00;;;;;;;1.10;0.27;;;;;;;10.03;100.00;96602.53;18486848;32;20103;-64
2022/09/27 16:55:10;;;;;;;1.80;0.20;;;;;;;10.05;100.00;96597.62;18500910;32;20060;-64
2022/09/27 17:05:14;;;;;;;0.67;0.23;;;;;;;10.01;100.00;96592.00;18498756;32;20060;-63
2022/09/27 17:15:19;;;;;;;1.10;0.37;;;;;;;9.94;100.00;96586.19;18361358;32;20600;-63
2022/09/27 17:25:22;;;;;;;0.93;0.23;;;;;;;9.70;100.00;96588.13;18348605;32;20114;-63
2022/09/27 17:35:26;;;;;;;0.80;0.20;;;;;;;9.69;100.00;96592.75;18347333;32;20176;-63
2022/09/27 17:45:28;;;;;;;1.00;0.30;;;;;;;9.70;100.00;96577.34;18469319;32;20060;-63
2022/09/27 17:55:31;;;;;;;0.47;0.20;;;;;;;9.61;100.00;96567.19;18490467;32;20135;-63
2022/09/27 18:05:36;;;;;;;0.30;0.10;;;;;;;9.49;100.00;96570.31;18469119;32;20437;-63
2022/09/27 18:15:39;;;;;;;1.98;0.40;;;;;;;9.45;100.00;96577.38;18495437;32;20060;-63
2022/09/27 18:25:43;;;;;;;1.57;0.40;;;;;;;9.41;100.00;96591.75;18495957;32;20112;-63
2022/09/27 18:35:47;;;;;;;1.70;0.40;;;;;;;9.42;100.00;96598.75;18357545;32;20236;-63
2022/09/27 18:45:52;;;;;;;2.87;0.40;;;;;;;9.41;100.00;96608.72;18357296;32;20065;-63
2022/09/27 18:55:55;;;;;;;3.70;0.50;;;;;;;9.45;100.00;96598.19;18356953;32;20057;-63
2022/09/27 19:06:12;;;;;;;1.10;0.20;;;;;;;9.37;100.00;96596.13;18466059;32;20094;-63
2022/09/27 19:16:14;;;;;;;1.63;0.50;;;;;;;9.32;100.00;96588.91;18494698;32;20054;-63
2022/09/27 19:26:21;;;;;;;1.00;0.50;;;;;;;9.30;100.00;96593.75;18295829;32;20069;-63
2022/09/27 19:36:24;;;;;;;1.03;0.50;;;;;;;9.29;100.00;96601.06;18304007;32;20073;-63
2022/09/27 19:46:27;;;;;;;0.80;0.30;;;;;;;9.26;100.00;96622.41;18303492;32;20098;-63
2022/09/27 19:56:31;;;;;;;1.07;0.30;;;;;;;9.37;100.00;96596.13;18333395;32;20045;-63
2022/09/27 20:06:33;;;;;;;1.13;0.40;;;;;;;9.34;100.00;96597.50;18503543;32;20424;-63
2022/09/27 20:16:36;;;;;;;0.93;0.40;;;;;;;9.37;100.00;96594.22;18488829;32;20049;-63
2022/09/27 20:26:43;;;;;;;2.33;0.60;;;;;;;9.31;100.00;96587.28;18502673;32;20061;-63
2022/09/27 20:36:46;;;;;;;1.73;0.43;;;;;;;9.29;100.00;96584.88;18487198;32;20060;-63
2022/09/27 20:46:48;;;;;;;0.87;0.30;;;;;;;9.33;100.00;96567.03;18501090;32;20396;-63
2022/09/27 20:56:51;;;;;;;0.30;0.20;;;;;;;9.32;100.00;96557.31;18487264;32;20101;-63
2022/09/27 21:06:54;;;;;;;0.67;0.30;;;;;;;9.28;100.00;96556.28;18499677;32;20091;-63
2022/09/27 21:16:57;;;;;;;0.50;0.30;;;;;;;9.27;100.00;96545.78;18485535;32;20057;-63
2022/09/27 21:27:04;;;;;;;1.17;0.30;;;;;;;9.22;100.00;96511.59;18472175;32;20061;-64
2022/09/27 21:37:07;;;;;;;0.90;0.30;;;;;;;9.27;100.00;96503.44;18498283;32;20045;-63
2022/09/27 21:47:12;;;;;;;1.97;0.40;;;;;;;9.27;100.00;96500.75;18497572;32;20060;-63
2022/09/27 21:57:14;;;;;;;1.35;0.52;;;;;;;9.26;100.00;96472.19;18497263;32;20436;-63
2022/09/27 22:07:17;;;;;;;1.03;0.40;;;;;;;9.27;100.00;96467.59;18496502;32;20057;-63
2022/09/27 22:17:19;;;;;;;1.90;0.77;;;;;;;9.22;100.00;96443.38;18345718;32;20421;-63
2022/09/27 22:27:21;;;;;;;2.50;0.90;;;;;;;9.27;100.00;96432.53;18357764;32;20065;-63
2022/09/27 22:37:24;;;;;;;6.63;1.23;;;;;;;9.30;100.00;96403.06;18345089;32;20136;-61
2022/09/27 22:47:27;;;;;;;2.43;0.73;;;;;;;9.29;100.00;96395.25;18465772;32;20091;-62
2022/09/27 22:57:30;;;;;;;4.30;0.80;;;;;;;9.35;100.00;96393.31;18494971;32;20075;-62
2022/09/27 23:07:32;;;;;;;3.43;0.73;;;;;;;9.43;100.00;96385.34;18431890;32;20065;-62
2022/09/27 23:17:36;;;;;;;3.60;0.87;;;;;;;9.44;100.00;96376.16;18432660;32;20508;-62
2022/09/27 23:27:41;;;;;;;2.77;1.00;;;;;;;9.47;100.00;96364.75;18432182;32;20069;-62
2022/09/27 23:37:43;;;;;;;;;;;;;;;9.49;100.00;96343.66;18443195;32;20091;-62
2022/09/27 23:47:45;;;;;;;1.40;0.80;;;;;;;9.42;100.00;96335.16;18505382;32;19981;-62
2022/09/27 23:57:47;;;;;;;1.93;0.77;;;;;;;9.43;100.00;96288.22;18504223;32;20134;-62
